Time;durP1;ratioP1;P1;durP2;ratioP2;P2;SDS_P1;SDS_P2;PMS_P1;PMS_P2;Temp;Humidity;BMP_temperature;BMP_pressure;BME280_temperature;BME280_humidity;BME280_pressure;Samples;Min_cycle;Max_cycle;Signal;HPM_P1;HPM_P2
2021/11/11 00:02:18;;;;;;;11.18;4.78;;;;;;;19.72;40.88;102095.31;4957587;29;20109;-75
2021/11/11 00:04:44;;;;;;;8.73;5.10;;;;;;;19.77;40.74;102086.78;4957330;29;20126;-76
2021/11/11 00:07:11;;;;;;;8.40;4.60;;;;;;;19.82;40.67;102083.81;4957082;28;20121;-76
2021/11/11 00:09:37;;;;;;;10.40;5.47;;;;;;;19.97;40.45;102073.22;4957235;29;20031;-76
2021/11/11 00:12:03;;;;;;;10.93;5.18;;;;;;;19.98;40.39;102075.63;4957429;28;20422;-77
2021/11/11 00:14:29;;;;;;;8.50;4.75;;;;;;;19.83;40.65;102079.88;4939818;29;20082;-75
2021/11/11 00:16:54;;;;;;;7.88;4.70;;;;;;;19.85;40.79;102076.75;4957166;29;20074;-75
2021/11/11 00:19:20;;;;;;;8.45;4.65;;;;;;;19.94;40.60;102075.50;4957184;28;20035;-75
2021/11/11 00:21:46;;;;;;;8.32;4.65;;;;;;;19.85;40.81;102077.56;4957005;28;20031;-75
2021/11/11 00:24:12;;;;;;;14.48;5.78;;;;;;;19.86;40.86;102073.63;4957005;29;20083;-75
2021/11/11 00:26:38;;;;;;;11.88;5.45;;;;;;;19.85;40.81;102077.56;4957042;29;20031;-76
2021/11/11 00:29:03;;;;;;;8.25;4.57;;;;;;;19.90;40.65;102074.59;4956721;28;20031;-75
2021/11/11 00:31:29;;;;;;;9.30;4.53;;;;;;;19.93;40.75;102071.09;4939530;29;20094;-76
2021/11/11 00:33:55;;;;;;;11.15;5.78;;;;;;;19.93;40.67;102073.06;4956843;29;20038;-76
2021/11/11 00:36:21;;;;;;;12.80;4.82;;;;;;;19.53;41.68;102064.53;4956775;29;20035;-76
2021/11/11 00:38:47;;;;;;;7.90;4.15;;;;;;;19.80;40.95;102063.94;4956712;29;20039;-75
2021/11/11 00:41:14;;;;;;;12.10;4.28;;;;;;;19.93;40.66;102057.25;4956791;28;20027;-75
2021/11/11 00:43:41;;;;;;;8.70;5.80;;;;;;;20.15;40.18;102056.00;4956759;29;20027;-74
2021/11/11 00:46:07;;;;;;;6.82;4.03;;;;;;;20.19;40.16;102056.13;4956873;29;20031;-75
2021/11/11 00:48:33;;;;;;;9.80;5.03;;;;;;;20.00;40.27;102053.91;4956706;28;20462;-75
2021/11/11 00:50:59;;;;;;;11.13;4.35;;;;;;;19.97;40.72;102049.06;4956570;29;20027;-75
2021/11/11 00:53:25;;;;;;;9.18;4.70;;;;;;;20.01;40.50;102047.19;4956530;29;20019;-74
2021/11/11 00:55:51;;;;;;;8.05;3.92;;;;;;;20.02;40.43;102043.25;4956427;29;20030;-76
2021/11/11 00:58:17;;;;;;;10.30;4.68;;;;;;;20.15;40.49;102042.13;4956388;28;20023;-75
2021/11/11 01:00:43;;;;;;;7.97;4.00;;;;;;;20.03;40.69;102041.31;4956201;29;20039;-75
2021/11/11 01:03:10;;;;;;;8.68;4.10;;;;;;;19.96;40.81;102044.66;4956329;29;20028;-76
2021/11/11 01:05:36;;;;;;;9.07;4.60;;;;;;;19.95;40.93;102032.75;4938974;29;20027;-76
2021/11/11 01:08:02;;;;;;;9.63;4.60;;;;;;;19.96;40.94;102036.34;4956277;29;20478;-76
2021/11/11 01:10:28;;;;;;;9.00;4.20;;;;;;;19.94;40.92;102033.88;4956585;28;20074;-76
2021/11/11 01:12:55;;;;;;;10.82;4.80;;;;;;;19.92;40.91;102033.44;4956310;28;20031;-76
2021/11/11 01:15:25;;;;;;;6.55;4.18;;;;;;;19.92;41.00;102032.63;4956489;28;20034;-75
2021/11/11 01:17:51;;;;;;;6.40;4.20;;;;;;;19.92;40.90;102038.97;4956052;29;20039;-76
2021/11/11 01:20:18;;;;;;;10.07;4.72;;;;;;;19.85;40.97;102038.75;4956283;29;20079;-76
2021/11/11 01:22:45;;;;;;;10.25;4.57;;;;;;;19.86;41.02;102029.25;4956048;29;20031;-76
2021/11/11 01:25:16;;;;;;;7.63;4.28;;;;;;;19.82;41.05;102038.63;4955989;29;20521;-75
2021/11/11 01:27:42;;;;;;;9.57;5.50;;;;;;;19.81;41.09;102029.50;4954705;29;20059;-75
2021/11/11 01:30:08;;;;;;;10.70;5.30;;;;;;;19.82;41.11;102042.22;4955619;28;20511;-76
2021/11/11 01:32:34;;;;;;;12.52;5.10;;;;;;;19.82;41.03;102038.63;4955724;29;20101;-76
2021/11/11 01:35:00;;;;;;;11.00;6.38;;;;;;;19.85;40.98;102030.41;4955696;29;20110;-76
2021/11/11 01:37:26;;;;;;;10.32;6.47;;;;;;;19.78;41.02;102032.94;4955763;29;20508;-76
2021/11/11 01:39:52;;;;;;;10.07;5.65;;;;;;;19.75;41.09;102032.84;4955536;29;20109;-75
2021/11/11 01:42:17;;;;;;;9.57;5.85;;;;;;;19.75;41.16;102033.66;4955633;29;20110;-75
2021/11/11 01:44:55;;;;;;;8.98;5.05;;;;;;;19.71;41.08;102029.94;4955447;29;20117;-76
2021/11/11 01:47:21;;;;;;;10.60;5.50;;;;;;;19.64;41.56;102026.91;4955404;29;20031;-75
2021/11/11 01:49:48;;;;;;;9.70;5.22;;;;;;;19.85;40.92;102026.84;4938187;29;20045;-77
2021/11/11 01:52:17;;;;;;;15.13;6.85;;;;;;;19.73;41.23;102018.53;4955336;29;20121;-75
2021/11/11 01:54:43;;;;;;;6.72;4.93;;;;;;;19.82;41.00;102013.66;4955307;28;20027;-75
2021/11/11 01:57:09;;;;;;;12.43;5.85;;;;;;;19.69;41.26;102012.84;4955565;29;20415;-76
2021/11/11 01:59:34;;;;;;;9.90;5.03;;;;;;;19.72;41.31;102005.78;4954913;28;20648;-80
2021/11/11 02:02:00;;;;;;;10.60;5.53;;;;;;;19.72;41.39;102001.03;4954074;29;20023;-75
2021/11/11 02:04:26;;;;;;;8.55;4.97;;;;;;;19.69;41.39;102001.75;4955366;29;20027;-75
2021/11/11 02:06:52;;;;;;;7.93;5.15;;;;;;;19.57;41.73;102012.81;4955092;29;20027;-75
2021/11/11 02:09:19;;;;;;;6.22;3.88;;;;;;;19.55;41.77;102012.31;4955068;29;20483;-75
2021/11/11 02:11:47;;;;;;;9.02;4.53;;;;;;;19.64;41.47;102019.41;4937829;29;20039;-79
2021/11/11 02:14:15;;;;;;;10.38;4.47;;;;;;;19.69;41.50;102018.38;4954984;29;20550;-75
2021/11/11 02:16:41;;;;;;;6.53;3.80;;;;;;;19.71;41.40;102018.03;4954964;29;20094;-76
2021/11/11 02:19:08;;;;;;;6.85;4.32;;;;;;;19.72;41.48;102012.13;4954949;28;20486;-76
2021/11/11 02:21:37;;;;;;;7.03;4.78;;;;;;;19.78;41.34;102010.75;4954842;28;20035;-75
2021/11/11 02:24:03;;;;;;;8.57;4.47;;;;;;;19.76;41.48;102007.53;4954005;28;20063;-76
2021/11/11 02:26:29;;;;;;;11.07;4.50;;;;;;;19.77;41.21;102003.59;4954900;28;20062;-76
2021/11/11 02:28:55;;;;;;;8.38;5.35;;;;;;;19.77;41.44;101994.47;4954736;29;20031;-79
2021/11/11 02:31:21;;;;;;;8.30;4.93;;;;;;;19.79;41.44;102006.84;4955001;29;20035;-75
2021/11/11 02:33:56;;;;;;;8.25;4.43;;;;;;;19.78;41.44;101996.09;4954629;29;20028;-75
2021/11/11 02:36:22;;;;;;;9.00;5.13;;;;;;;19.82;41.18;101992.28;4954728;28;20027;-75
2021/11/11 02:38:49;;;;;;;10.80;4.93;;;;;;;19.83;41.33;101993.91;4954739;28;20030;-79
2021/11/11 02:41:17;;;;;;;8.15;5.05;;;;;;;19.82;41.45;101997.84;4954623;29;20035;-76
2021/11/11 02:43:44;;;;;;;9.68;5.43;;;;;;;19.76;41.51;101990.91;4954596;29;20105;-76
2021/11/11 02:46:10;;;;;;;7.65;4.72;;;;;;;19.79;41.55;101989.38;4954636;29;20034;-75
2021/11/11 02:48:36;;;;;;;9.90;5.05;;;;;;;19.82;41.41;101983.97;4954558;28;20031;-76
2021/11/11 02:51:02;;;;;;;7.43;4.95;;;;;;;19.81;41.52;101990.69;4954591;29;20054;-75
2021/11/11 02:53:27;;;;;;;9.55;5.60;;;;;;;19.72;41.57;101981.63;4954585;29;20038;-75
2021/11/11 02:55:53;;;;;;;10.65;6.40;;;;;;;19.74;41.54;101987.66;4954460;28;20035;-75
2021/11/11 02:58:20;;;;;;;8.70;5.68;;;;;;;19.75;41.37;101972.66;4954402;28;20042;-75
2021/11/11 03:00:54;;;;;;;9.43;6.00;;;;;;;19.77;41.49;101977.84;4954278;28;20043;-76
2021/11/11 03:03:20;;;;;;;7.13;4.95;;;;;;;19.75;41.29;101963.50;4954525;29;20023;-76
2021/11/11 03:05:46;;;;;;;11.35;6.10;;;;;;;19.70;41.35;101964.53;4954394;28;20028;-76
2021/11/11 03:08:12;;;;;;;10.30;6.65;;;;;;;19.68;41.55;101966.84;4954356;29;20106;-75
2021/11/11 03:10:40;;;;;;;9.00;6.53;;;;;;;19.67;41.57;101970.78;4937112;29;20114;-75
2021/11/11 03:13:06;;;;;;;12.73;6.97;;;;;;;19.65;41.70;101962.00;4954218;28;20474;-76
2021/11/11 03:15:34;;;;;;;13.27;7.55;;;;;;;19.71;41.55;101965.34;4953807;29;20035;-76
2021/11/11 03:18:00;;;;;;;13.20;9.45;;;;;;;19.68;41.60;101961.31;4954241;29;20062;-75
2021/11/11 03:20:27;;;;;;;13.15;8.82;;;;;;;19.70;41.57;101970.09;4954284;29;20062;-75
2021/11/11 03:22:52;;;;;;;14.90;8.68;;;;;;;19.66;41.69;101963.63;4954229;28;20046;-75
2021/11/11 03:25:30;;;;;;;15.43;7.50;;;;;;;19.70;41.66;101955.41;4954362;29;20518;-76
2021/11/11 03:27:57;;;;;;;12.85;6.88;;;;;;;19.67;41.61;101949.41;4954127;29;20023;-75
2021/11/11 03:30:24;;;;;;;11.05;6.63;;;;;;;19.74;41.33;101959.13;4954332;28;20504;-75
2021/11/11 03:32:51;;;;;;;8.98;6.38;;;;;;;19.74;41.51;101954.38;4954454;28;20023;-75
2021/11/11 03:35:18;;;;;;;12.02;5.60;;;;;;;19.74;41.65;101959.13;4955982;28;20031;-75
2021/11/11 03:37:45;;;;;;;8.05;5.30;;;;;;;19.73;41.68;101960.28;4958158;29;20034;-76
2021/11/11 03:40:15;;;;;;;10.27;6.13;;;;;;;19.66;41.75;101953.34;4957839;28;20031;-76
2021/11/11 03:42:42;;;;;;;6.95;5.10;;;;;;;19.65;41.60;101954.50;4940575;29;20023;-76
2021/11/11 03:45:09;;;;;;;6.55;4.82;;;;;;;19.66;41.77;101964.44;4957757;29;20117;-75
2021/11/11 03:47:35;;;;;;;9.85;5.55;;;;;;;19.72;41.71;101958.66;4957603;28;20030;-75
2021/11/11 03:50:01;;;;;;;10.05;5.70;;;;;;;19.74;41.59;101954.38;4957703;28;20023;-75
2021/11/11 03:52:26;;;;;;;9.68;5.28;;;;;;;19.75;41.75;101953.22;4957571;29;20035;-76
2021/11/11 03:54:52;;;;;;;9.15;5.18;;;;;;;19.73;41.57;101952.78;4957521;29;20034;-75
2021/11/11 03:57:18;;;;;;;11.75;6.47;;;;;;;19.71;41.80;101946.75;4957413;28;20035;-75
2021/11/11 03:59:44;;;;;;;6.63;4.82;;;;;;;19.71;41.71;101954.25;4957467;29;20074;-75
2021/11/11 04:02:13;;;;;;;8.57;5.38;;;;;;;19.71;41.74;101955.06;4939047;29;20508;-76
2021/11/11 04:04:39;;;;;;;9.05;6.10;;;;;;;19.90;41.37;101949.75;4957230;29;20023;-75
2021/11/11 04:07:05;;;;;;;8.70;5.30;;;;;;;19.95;41.26;101949.53;4957464;29;20031;-76
2021/11/11 04:09:31;;;;;;;8.88;5.35;;;;;;;19.96;41.17;101961.44;4957187;28;20363;-76
2021/11/11 04:11:57;;;;;;;9.27;5.70;;;;;;;19.91;41.22;101956.94;4957167;28;20023;-78
2021/11/11 04:14:22;;;;;;;9.93;5.05;;;;;;;19.92;41.20;101953.00;4957267;28;20031;-75
2021/11/11 04:16:49;;;;;;;10.63;5.20;;;;;;;19.97;41.14;101951.16;4957188;28;20085;-76
2021/11/11 04:19:15;;;;;;;8.10;5.05;;;;;;;19.97;40.93;101951.97;4957104;28;20445;-75
2021/11/11 04:21:40;;;;;;;9.20;4.93;;;;;;;19.98;41.19;101955.53;4957255;29;20023;-75
2021/11/11 04:24:07;;;;;;;7.63;4.55;;;;;;;19.97;41.18;101956.69;4965436;28;20053;-82
2021/11/11 04:26:36;;;;;;;9.10;4.65;;;;;;;19.96;41.19;101955.91;4976177;28;20482;-75
2021/11/11 04:29:15;;;;;;;9.80;5.45;;;;;;;19.98;41.14;101947.22;4958825;28;20402;-76
2021/11/11 04:31:53;;;;;;;8.55;4.55;;;;;;;19.96;41.21;101950.34;4958757;28;20026;-76
2021/11/11 04:34:20;;;;;;;8.27;4.15;;;;;;;20.00;41.20;101942.94;4976154;28;20099;-75
2021/11/11 04:44:47;;;;;;;;;;;;;;;19.80;41.47;101938.31;4964731;28;20122;-77
2021/11/11 04:59:36;;;;;;;10.43;4.80;;;;;;;19.91;41.20;101917.28;4964674;28;20405;-76
2021/11/11 05:05:32;;;;;;;10.85;4.75;;;;;;;19.77;41.42;101919.59;4965533;28;20028;-75
2021/11/11 05:07:57;;;;;;;10.52;4.72;;;;;;;19.82;41.53;101913.84;4963668;28;20032;-75
2021/11/11 05:10:24;;;;;;;10.55;4.15;;;;;;;19.85;41.40;101921.44;4965138;28;20367;-75
2021/11/11 05:12:50;;;;;;;6.20;3.83;;;;;;;19.80;41.43;101919.72;4965398;28;20019;-75
2021/11/11 05:15:17;;;;;;;8.07;4.43;;;;;;;19.85;41.24;101911.16;4963632;28;20628;-78
2021/11/11 05:17:45;;;;;;;10.95;4.40;;;;;;;19.80;41.37;101913.34;4966396;28;20020;-80
2021/11/11 05:20:13;;;;;;;8.85;4.72;;;;;;;19.82;41.29;101917.41;4956805;28;20027;-76
2021/11/11 05:22:39;;;;;;;6.90;4.32;;;;;;;19.78;41.41;101910.94;4952821;28;20023;-81
2021/11/11 05:25:05;;;;;;;11.65;4.43;;;;;;;19.73;41.44;101908.41;4965799;28;20429;-76
2021/11/11 05:27:31;;;;;;;7.07;4.25;;;;;;;19.71;41.39;101905.16;4965840;28;20094;-77
2021/11/11 05:29:56;;;;;;;7.80;4.10;;;;;;;19.71;41.48;101907.13;4964960;28;20015;-76
2021/11/11 05:32:22;;;;;;;7.97;4.05;;;;;;;19.68;41.44;101905.84;4964653;28;20039;-76
2021/11/11 05:34:48;;;;;;;7.57;4.38;;;;;;;19.49;41.63;101902.81;4957243;28;20030;-76
2021/11/11 05:37:15;;;;;;;9.10;4.28;;;;;;;19.45;41.66;101896.34;4955930;29;20023;-75
2021/11/11 05:39:41;;;;;;;6.47;4.93;;;;;;;19.47;41.59;101899.56;4955884;29;20038;-76
2021/11/11 05:42:07;;;;;;;8.40;4.43;;;;;;;19.38;41.77;101897.72;4955547;29;20086;-76
2021/11/11 05:44:33;;;;;;;7.13;4.75;;;;;;;19.30;41.50;101893.09;4955465;29;20023;-75
2021/11/11 05:46:58;;;;;;;15.03;4.73;;;;;;;19.16;41.68;101898.16;4938397;29;20031;-75
2021/11/11 05:49:25;;;;;;;10.27;5.28;;;;;;;19.09;41.67;101890.41;4955430;29;20136;-75
2021/11/11 05:51:52;;;;;;;11.13;5.13;;;;;;;18.94;41.79;101895.78;4955423;29;20023;-75
2021/11/11 05:54:18;;;;;;;7.25;4.18;;;;;;;18.90;41.91;101892.09;4955229;29;20027;-75
2021/11/11 05:56:44;;;;;;;8.55;4.70;;;;;;;18.83;41.64;101893.47;4955287;29;20034;-75
2021/11/11 05:59:10;;;;;;;9.88;4.43;;;;;;;18.67;41.99;101892.47;4955264;28;20046;-75
2021/11/11 06:01:35;;;;;;;8.75;5.15;;;;;;;18.66;42.07;101890.03;4955379;29;20166;-74
2021/11/11 06:04:02;;;;;;;8.25;4.57;;;;;;;18.63;42.02;101879.63;4955545;29;20027;-75
2021/11/11 06:06:29;;;;;;;7.45;4.45;;;;;;;18.64;41.81;101881.22;4937847;29;20039;-75
2021/11/11 06:08:55;;;;;;;9.85;5.07;;;;;;;18.55;41.86;101875.78;4955025;29;20039;-75
2021/11/11 06:11:20;;;;;;;17.92;5.80;;;;;;;18.30;42.27;101878.44;4955816;28;20055;-75
2021/11/11 06:13:46;;;;;;;10.60;4.60;;;;;;;18.20;42.17;101881.59;4955079;29;20517;-76
2021/11/11 06:16:12;;;;;;;10.95;4.65;;;;;;;18.05;42.31;101876.66;4954872;29;20166;-76
2021/11/11 06:18:38;;;;;;;9.27;4.38;;;;;;;17.97;42.56;101878.34;4937608;29;20397;-75
2021/11/11 06:21:03;;;;;;;6.85;3.90;;;;;;;17.90;42.70;101874.47;4954805;29;20027;-75
2021/11/11 06:23:29;;;;;;;6.85;4.30;;;;;;;17.87;42.52;101872.41;4954821;29;20027;-75
2021/11/11 06:25:55;;;;;;;8.07;4.85;;;;;;;17.83;42.58;101866.72;4954782;29;20032;-75
2021/11/11 06:28:22;;;;;;;9.63;4.97;;;;;;;17.75;42.40;101876.69;4954694;28;20058;-76
2021/11/11 06:30:48;;;;;;;12.25;5.22;;;;;;;17.64;42.70;101878.19;4954828;29;20030;-80
2021/11/11 06:33:14;;;;;;;10.50;4.88;;;;;;;17.58;42.82;101870.41;4954731;29;20038;-75
2021/11/11 06:35:40;;;;;;;11.82;5.55;;;;;;;17.53;43.00;101868.63;4954676;29;20031;-75
2021/11/11 06:38:06;;;;;;;22.30;5.63;;;;;;;17.51;42.86;101865.41;4937400;29;20019;-76
2021/11/11 06:40:33;;;;;;;7.50;4.07;;;;;;;17.43;43.22;101853.25;4954544;29;20055;-73
2021/11/11 06:42:59;;;;;;;10.73;4.78;;;;;;;17.42;43.15;101850.84;4954536;29;20030;-74
2021/11/11 06:45:28;;;;;;;6.43;4.13;;;;;;;17.38;43.28;101847.09;4954522;28;20028;-75
2021/11/11 06:47:54;;;;;;;10.70;4.15;;;;;;;17.37;43.25;101854.56;4954540;28;20240;-72
2021/11/11 06:50:20;;;;;;;6.22;4.03;;;;;;;17.28;43.29;101862.09;4937059;29;20126;-73
2021/11/11 06:52:46;;;;;;;12.57;4.75;;;;;;;17.32;43.05;101856.75;4954439;29;20106;-72
2021/11/11 06:55:11;;;;;;;9.65;4.50;;;;;;;17.29;43.23;101854.63;4954445;29;20455;-72
2021/11/11 06:57:38;;;;;;;8.60;5.22;;;;;;;17.35;43.03;101856.06;4954404;29;20382;-74
2021/11/11 07:00:07;;;;;;;10.90;5.00;;;;;;;17.40;43.13;101850.38;4937032;29;20066;-72
2021/11/11 07:02:33;;;;;;;9.77;4.53;;;;;;;17.50;43.21;101855.50;4954341;29;20027;-72
2021/11/11 07:04:59;;;;;;;8.80;4.45;;;;;;;17.54;42.99;101856.47;4954755;28;20031;-73
2021/11/11 07:07:24;;;;;;;7.13;4.57;;;;;;;17.81;42.64;101862.69;4971689;28;20089;-73
2021/11/11 07:09:50;;;;;;;6.90;4.25;;;;;;;17.81;42.71;101862.69;4974058;28;20183;-73
2021/11/11 07:12:16;;;;;;;6.00;3.72;;;;;;;17.84;42.62;101862.03;4957393;28;20039;-78
2021/11/11 07:14:43;;;;;;;6.68;3.55;;;;;;;17.85;42.71;101863.63;4967677;28;20169;-73
2021/11/11 07:17:10;;;;;;;7.13;3.75;;;;;;;17.94;42.81;101856.09;4977443;28;20037;-75
2021/11/11 07:19:35;;;;;;;14.02;4.65;;;;;;;18.09;42.59;101858.25;4977345;28;20101;-76
2021/11/11 07:22:03;;;;;;;10.70;3.85;;;;;;;18.12;42.40;101856.75;4977160;28;20088;-75
2021/11/11 07:24:30;;;;;;;8.75;4.20;;;;;;;18.11;42.85;101853.19;4977149;28;20027;-75
2021/11/11 07:26:56;;;;;;;11.48;3.58;;;;;;;18.24;42.50;101849.34;4977451;28;20045;-80
2021/11/11 07:29:21;;;;;;;5.85;2.83;;;;;;;18.32;42.50;101839.34;4968868;28;20153;-73
2021/11/11 07:31:52;;;;;;;10.48;3.70;;;;;;;18.29;42.56;101835.31;4961441;28;20113;-73
2021/11/11 07:34:20;;;;;;;6.15;2.80;;;;;;;18.28;42.72;101846.69;4961126;28;20488;-74
2021/11/11 07:36:46;;;;;;;9.38;3.17;;;;;;;18.28;42.90;101844.75;4959894;28;20521;-74
2021/11/11 07:39:12;;;;;;;5.82;2.97;;;;;;;18.24;42.99;101854.06;4959716;28;20049;-73
2021/11/11 07:41:38;;;;;;;11.43;3.13;;;;;;;18.37;42.67;101844.69;4961776;28;20101;-74
2021/11/11 07:44:06;;;;;;;4.53;2.30;;;;;;;18.42;42.71;101841.69;4960398;28;20754;-74
2021/11/11 07:46:34;;;;;;;7.68;2.47;;;;;;;18.48;42.41;101837.56;4943030;28;20023;-74
2021/11/11 07:49:00;;;;;;;7.72;2.83;;;;;;;18.42;42.68;101838.13;4960307;28;20057;-77
2021/11/11 07:51:26;;;;;;;9.48;2.97;;;;;;;18.35;43.02;101844.19;4960130;28;20031;-74
2021/11/11 07:53:52;;;;;;;7.05;2.20;;;;;;;18.49;42.91;101843.91;4958956;28;20030;-74
2021/11/11 07:56:18;;;;;;;3.78;2.10;;;;;;;18.54;42.75;101852.84;4960164;28;20042;-74
2021/11/11 07:58:44;;;;;;;8.77;2.83;;;;;;;18.58;42.93;101842.69;4960607;28;20042;-73
2021/11/11 08:01:09;;;;;;;6.47;1.98;;;;;;;18.64;42.87;101843.28;4958980;28;20050;-74
2021/11/11 08:03:35;;;;;;;3.55;2.10;;;;;;;18.63;43.09;101838.09;4964109;28;20023;-72
2021/11/11 08:06:00;;;;;;;10.32;2.60;;;;;;;18.75;43.06;101843.72;4976469;28;20058;-75
2021/11/11 08:08:26;;;;;;;8.20;2.38;;;;;;;18.86;42.86;101831.03;4959170;28;20662;-75
2021/11/11 08:10:52;;;;;;;7.75;3.30;;;;;;;18.89;42.99;101824.00;4958491;28;20085;-75
2021/11/11 08:13:18;;;;;;;10.52;2.80;;;;;;;18.97;43.04;101803.72;4974660;28;20026;-74
2021/11/11 08:15:44;;;;;;;4.10;2.00;;;;;;;18.95;43.15;101812.34;4975979;28;20058;-76
2021/11/11 08:18:10;;;;;;;7.93;2.40;;;;;;;18.98;43.28;101806.16;4976486;28;20552;-74
2021/11/11 08:20:36;;;;;;;5.72;1.70;;;;;;;19.17;43.02;101802.00;4965274;28;20024;-74
2021/11/11 08:23:02;;;;;;;9.02;2.50;;;;;;;19.16;43.16;101797.59;4958142;28;20509;-78
2021/11/11 08:25:27;;;;;;;7.70;2.67;;;;;;;19.23;43.22;101812.50;4975978;28;20026;-73
2021/11/11 08:27:54;;;;;;;10.40;2.97;;;;;;;19.23;43.62;101795.88;4976275;28;20110;-73
2021/11/11 08:30:20;;;;;;;10.63;2.63;;;;;;;19.43;43.41;101801.66;4976313;28;20023;-73
2021/11/11 08:32:50;;;;;;;4.15;1.65;;;;;;;19.55;43.25;101796.91;4975626;28;20038;-75
2021/11/11 08:35:16;;;;;;;9.10;2.40;;;;;;;19.66;43.11;101800.03;4976059;28;20027;-73
2021/11/11 08:37:43;;;;;;;7.82;2.08;;;;;;;19.66;43.28;101800.84;4976194;28;20031;-73
2021/11/11 08:40:10;;;;;;;8.65;2.83;;;;;;;19.64;43.84;101794.03;4975956;28;20022;-74
2021/11/11 08:42:36;;;;;;;7.85;2.30;;;;;;;19.60;44.11;101790.34;4975407;28;20022;-74
2021/11/11 08:45:03;;;;;;;6.78;2.22;;;;;;;19.82;43.67;101789.03;4956866;28;20106;-73
2021/11/11 08:47:29;;;;;;;5.53;2.20;;;;;;;19.86;43.75;101793.50;4956775;28;20431;-73
2021/11/11 08:49:56;;;;;;;7.38;2.40;;;;;;;19.78;44.34;101783.38;4973870;28;20054;-74
2021/11/11 08:52:22;;;;;;;7.22;2.13;;;;;;;20.11;43.63;101785.13;4974675;28;20470;-73
2021/11/11 08:54:49;;;;;;;6.05;2.10;;;;;;;20.17;43.65;101767.06;4974917;28;20027;-73
2021/11/11 08:57:16;;;;;;;6.00;1.90;;;;;;;20.16;43.81;101771.00;4975220;28;20033;-73
2021/11/11 08:59:41;;;;;;;8.25;2.53;;;;;;;20.19;44.08;101767.53;4975315;28;20058;-73
2021/11/11 09:02:10;;;;;;;7.05;2.40;;;;;;;20.32;43.91;101762.72;4975152;28;20099;-73
2021/11/11 09:04:37;;;;;;;6.72;2.47;;;;;;;20.41;43.97;101757.81;4975057;28;20077;-73
2021/11/11 09:07:03;;;;;;;5.28;2.42;;;;;;;20.42;44.01;101754.69;4975455;28;20026;-73
2021/11/11 09:09:29;;;;;;;5.75;2.15;;;;;;;20.39;44.27;101752.59;4975572;28;20066;-73
2021/11/11 09:11:55;;;;;;;7.28;2.35;;;;;;;20.50;44.29;101755.72;4975412;28;20501;-75
2021/11/11 09:14:21;;;;;;;7.97;2.75;;;;;;;20.65;44.16;101748.56;4975312;28;20106;-73
2021/11/11 09:16:47;;;;;;;7.70;2.28;;;;;;;20.80;44.06;101749.75;4975492;28;20030;-73
2021/11/11 09:19:14;;;;;;;7.55;2.50;;;;;;;20.73;44.37;101744.81;4975366;28;20474;-74
2021/11/11 09:21:41;;;;;;;4.95;2.53;;;;;;;20.58;44.69;101734.50;4975195;28;20054;-73
2021/11/11 09:24:09;;;;;;;4.05;2.25;;;;;;;20.44;45.37;101749.63;4975843;28;20026;-73
2021/11/11 09:26:36;;;;;;;4.25;1.85;;;;;;;20.55;45.20;101729.66;4975083;28;20031;-75
2021/11/11 09:29:03;;;;;;;4.07;1.88;;;;;;;20.64;44.98;101727.53;4975053;28;20035;-74
2021/11/11 09:31:29;;;;;;;6.75;2.10;;;;;;;20.58;45.25;101723.41;4974690;28;20034;-74
2021/11/11 09:33:55;;;;;;;8.93;2.10;;;;;;;20.72;44.87;101726.53;4974530;28;20078;-74
2021/11/11 09:36:21;;;;;;;5.53;2.10;;;;;;;20.68;45.12;101728.41;4974943;28;20031;-74
2021/11/11 09:38:48;;;;;;;5.55;2.78;;;;;;;20.61;45.34;101712.38;4974909;28;20038;-74
2021/11/11 09:41:15;;;;;;;7.90;2.13;;;;;;;20.59;45.50;101711.13;4974764;28;20588;-77
2021/11/11 09:43:42;;;;;;;4.28;1.90;;;;;;;20.54;45.67;101700.28;4974803;28;20481;-73
2021/11/11 09:46:11;;;;;;;4.05;1.65;;;;;;;20.52;45.72;101695.09;4974728;28;20504;-74
2021/11/11 09:48:38;;;;;;;5.38;1.65;;;;;;;20.57;45.78;101688.47;4974511;28;20035;-73
2021/11/11 09:51:06;;;;;;;8.70;2.95;;;;;;;20.60;45.62;101682.19;4974851;28;20037;-74
2021/11/11 09:53:34;;;;;;;5.10;1.92;;;;;;;20.56;45.92;101679.34;4974518;28;20034;-74
2021/11/11 09:58:45;;;;;;;6.78;2.00;;;;;;;20.63;45.87;101665.63;4974635;28;20042;-74
2021/11/11 10:01:20;;;;;;;6.20;1.83;;;;;;;20.75;45.95;101664.72;4973916;28;20481;-75
2021/11/11 10:03:48;;;;;;;3.65;1.80;;;;;;;20.79;45.96;101665.63;4957089;28;20062;-74
2021/11/11 10:06:17;;;;;;;4.10;1.90;;;;;;;20.85;45.94;101668.91;4974097;28;20536;-79
2021/11/11 10:08:46;;;;;;;3.55;1.95;;;;;;;20.90;46.14;101655.56;4974126;28;20073;-75
2021/11/11 10:11:30;;;;;;;6.00;1.98;;;;;;;21.02;46.26;101663.78;4972462;28;20113;-75
2021/11/11 10:14:08;;;;;;;5.97;2.90;;;;;;;20.92;46.79;101655.19;4958418;28;20027;-75
2021/11/11 10:16:40;;;;;;;6.05;2.08;;;;;;;21.04;46.45;101644.78;4957438;28;20270;-77
2021/11/11 10:19:06;;;;;;;4.68;1.92;;;;;;;21.00;46.40;101638.31;4956551;28;20114;-75
2021/11/11 10:21:51;;;;;;;5.68;2.45;;;;;;;21.07;46.62;101640.44;4956511;28;20070;-74
2021/11/11 10:24:31;;;;;;;5.32;2.63;;;;;;;21.09;46.33;101634.56;4956223;28;20039;-75
2021/11/11 10:27:02;;;;;;;4.10;2.60;;;;;;;21.14;46.63;101632.28;4956471;28;20023;-74
2021/11/11 10:29:32;;;;;;;6.70;3.08;;;;;;;21.19;46.54;101623.66;4956636;28;20396;-74
2021/11/11 10:32:03;;;;;;;6.35;3.00;;;;;;;21.13;47.13;101615.97;4957332;28;20790;-74
2021/11/11 10:34:28;;;;;;;5.20;3.20;;;;;;;21.22;46.86;101617.38;4957395;28;20031;-74
2021/11/11 10:36:55;;;;;;;7.57;3.60;;;;;;;21.34;46.63;101605.34;4939719;28;20062;-75
2021/11/11 10:39:28;;;;;;;7.78;3.72;;;;;;;21.49;46.58;101607.25;4955526;28;20093;-73
2021/11/11 10:41:55;;;;;;;6.95;4.40;;;;;;;21.64;46.50;101599.19;4957820;28;20026;-74
2021/11/11 10:44:23;;;;;;;5.95;3.75;;;;;;;21.63;46.75;101586.47;4955774;28;20121;-78
2021/11/11 10:47:04;;;;;;;6.60;3.40;;;;;;;21.64;47.00;101582.50;4957060;28;20027;-73
2021/11/11 10:49:36;;;;;;;6.32;3.17;;;;;;;21.75;46.89;101570.38;4935652;28;20041;-73
2021/11/11 10:52:23;;;;;;;3.80;3.40;;;;;;;21.75;47.61;101575.16;4956308;28;20033;-75
2021/11/11 10:55:15;;;;;;;5.40;3.53;;;;;;;21.78;47.44;101572.44;4956604;28;20029;-73
2021/11/11 10:57:52;;;;;;;7.70;3.55;;;;;;;21.81;47.57;101570.91;4956906;28;20035;-73
2021/11/11 11:00:23;;;;;;;4.43;2.25;;;;;;;21.80;47.67;101564.53;4968711;28;20413;-73
2021/11/11 11:03:00;;;;;;;3.35;2.15;;;;;;;21.79;47.57;101568.50;4973680;28;20474;-73
2021/11/11 11:05:29;;;;;;;2.03;1.73;;;;;;;21.99;47.24;101560.06;4973657;28;20109;-73
2021/11/11 11:07:58;;;;;;;2.40;1.30;;;;;;;21.90;47.43;101551.97;4973556;28;20054;-73
2021/11/11 11:10:23;;;;;;;2.40;1.27;;;;;;;22.03;47.15;101550.63;4973553;28;20106;-73
2021/11/11 11:12:50;;;;;;;2.22;1.63;;;;;;;22.20;46.68;101548.53;4973573;28;20161;-74
2021/11/11 11:15:41;;;;;;;3.28;1.33;;;;;;;21.89;47.11;101528.13;4956349;28;20054;-74
2021/11/11 11:18:09;;;;;;;5.15;0.80;;;;;;;21.97;47.29;101540.97;4973568;28;20114;-72
2021/11/11 11:20:38;;;;;;;1.58;0.65;;;;;;;22.10;46.85;101528.50;4973405;28;20106;-75
2021/11/11 11:23:20;;;;;;;2.22;1.35;;;;;;;22.09;46.74;101529.69;4972089;28;20023;-79
2021/11/11 11:26:06;;;;;;;1.33;0.80;;;;;;;21.98;47.05;101520.31;4984850;28;20409;-73
2021/11/11 11:28:42;;;;;;;1.20;0.77;;;;;;;21.97;46.86;101518.72;4973238;28;20114;-79
2021/11/11 11:31:09;;;;;;;1.75;1.20;;;;;;;21.68;47.82;101505.50;4967051;28;20110;-74
2021/11/11 11:33:43;;;;;;;2.92;1.13;;;;;;;21.96;46.94;101510.75;4962669;28;20510;-79
2021/11/11 11:36:12;;;;;;;3.60;1.30;;;;;;;22.05;46.57;101508.50;4964917;28;20106;-72
2021/11/11 11:38:38;;;;;;;4.78;1.88;;;;;;;22.18;46.40;101501.59;4963988;28;20035;-73
2021/11/11 11:41:21;;;;;;;1.88;1.10;;;;;;;22.05;46.72;101494.59;4952013;28;20031;-73
2021/11/11 11:43:46;;;;;;;4.78;1.17;;;;;;;22.18;46.48;101486.88;4953089;28;20038;-75
2021/11/11 11:46:19;;;;;;;3.78;1.25;;;;;;;22.36;46.25;101485.16;4961743;28;20027;-73
2021/11/11 11:48:47;;;;;;;2.28;0.88;;;;;;;22.18;46.87;101479.34;4964433;28;20468;-73
2021/11/11 11:51:16;;;;;;;3.20;1.05;;;;;;;22.32;46.63;101478.75;4964325;28;20046;-73
2021/11/11 11:53:50;;;;;;;2.33;0.93;;;;;;;22.48;46.46;101468.25;4962338;28;20043;-73